createdAt,value
2022-08-26T00:00:22.010Z,46.16
2022-08-26T00:02:50.605Z,46.70
2022-08-26T00:05:19.212Z,46.79
2022-08-26T00:07:48.091Z,46.91
2022-08-26T00:10:17.946Z,46.84
2022-08-26T00:12:46.443Z,46.45
2022-08-26T00:15:20.133Z,46.97
2022-08-26T00:17:52.798Z,46.58
2022-08-26T00:20:26.108Z,46.98
2022-08-26T00:22:55.625Z,47.03
2022-08-26T00:25:24.586Z,47.11
2022-08-26T00:27:53.084Z,46.97
2022-08-26T00:30:27.704Z,46.93
2022-08-26T00:32:58.840Z,46.93
2022-08-26T00:35:28.536Z,47.43
2022-08-26T00:37:58.391Z,47.40
2022-08-26T00:40:34.387Z,47.45
2022-08-26T00:43:09.458Z,47.03
2022-08-26T00:45:46.791Z,47.25
2022-08-26T00:48:20.846Z,47.27
2022-08-26T00:50:56.145Z,47.35
2022-08-26T00:53:27.984Z,47.24
2022-08-26T00:56:02.749Z,47.70
2022-08-26T00:58:35.443Z,47.73
2022-08-26T01:01:04.119Z,47.59
2022-08-26T01:03:36.279Z,47.94
2022-08-26T01:06:12.654Z,48.10
2022-08-26T01:08:42.184Z,47.53
2022-08-26T01:11:12.643Z,47.84
2022-08-26T01:13:42.357Z,48.05
2022-08-26T01:16:15.992Z,48.09
2022-08-26T01:18:47.133Z,48.20
2022-08-26T01:21:26.196Z,47.76
2022-08-26T01:23:57.875Z,48.16
2022-08-26T01:26:31.795Z,48.19
2022-08-26T01:29:03.970Z,48.43
2022-08-26T01:31:39.828Z,48.11
2022-08-26T01:34:17.459Z,48.15
2022-08-26T01:36:50.712Z,48.20
2022-08-26T01:39:21.899Z,48.09
2022-08-26T01:41:54.437Z,48.20
2022-08-26T01:44:26.959Z,48.67
2022-08-26T01:46:58.454Z,48.38
2022-08-26T01:49:28.027Z,48.50
2022-08-26T01:52:00.630Z,48.68
2022-08-26T01:54:30.463Z,48.65
2022-08-26T01:56:59.735Z,48.43
2022-08-26T01:59:28.542Z,48.46
2022-08-26T02:01:57.365Z,48.46
2022-08-26T02:04:32.670Z,48.37
2022-08-26T02:07:04.153Z,48.89
2022-08-26T02:09:38.412Z,48.47
2022-08-26T02:12:11.926Z,48.69
2022-08-26T02:14:44.574Z,48.63
2022-08-26T02:17:13.426Z,48.96
2022-08-26T02:19:47.053Z,48.96
2022-08-26T02:22:21.313Z,48.98
2022-08-26T02:24:54.866Z,49.09
2022-08-26T02:27:28.127Z,49.02
2022-08-26T02:30:08.609Z,48.87
2022-08-26T02:32:37.135Z,48.75
2022-08-26T02:35:10.873Z,49.05
2022-08-26T02:37:39.704Z,48.96
2022-08-26T02:40:15.348Z,48.88
2022-08-26T02:42:43.855Z,49.06
2022-08-26T02:45:13.073Z,49.33
2022-08-26T02:47:45.334Z,49.32
2022-08-26T02:50:15.379Z,49.25
2022-08-26T02:52:45.301Z,49.33
2022-08-26T02:55:15.914Z,49.23
2022-08-26T02:57:44.502Z,49.23
2022-08-26T03:00:15.757Z,49.44
2022-08-26T03:02:44.190Z,49.30
2022-08-26T03:05:14.307Z,49.30
2022-08-26T03:07:44.340Z,49.39
2022-08-26T03:10:16.447Z,49.09
2022-08-26T03:12:47.392Z,49.43
2022-08-26T03:15:19.169Z,49.28
2022-08-26T03:17:50.289Z,49.40
2022-08-26T03:20:19.368Z,49.37
2022-08-26T03:22:47.772Z,49.29
2022-08-26T03:25:18.939Z,49.69
2022-08-26T03:27:47.406Z,49.83
2022-08-26T03:30:35.058Z,49.60
2022-08-26T03:33:03.780Z,49.58
2022-08-26T03:35:33.460Z,49.84
2022-08-26T03:38:03.407Z,49.88
2022-08-26T03:40:33.863Z,49.56
2022-08-26T03:43:02.517Z,49.87
2022-08-26T03:45:31.618Z,49.79
2022-08-26T03:48:00.127Z,49.75
2022-08-26T03:50:28.676Z,49.84
2022-08-26T03:52:57.469Z,49.87
2022-08-26T03:55:31.925Z,49.94
2022-08-26T03:58:02.561Z,49.92
2022-08-26T04:00:31.333Z,49.90
2022-08-26T04:03:00.087Z,49.87
2022-08-26T04:05:28.543Z,49.95
2022-08-26T04:07:57.036Z,50.00
2022-08-26T04:10:28.917Z,50.23
2022-08-26T04:12:59.208Z,50.18
2022-08-26T04:15:29.554Z,50.51
2022-08-26T04:17:58.366Z,50.33
2022-08-26T04:20:27.895Z,50.19
2022-08-26T04:22:56.581Z,50.30
2022-08-26T04:25:25.541Z,50.18
2022-08-26T04:27:53.930Z,50.29
2022-08-26T04:30:23.197Z,50.23
2022-08-26T04:32:53.836Z,50.22
2022-08-26T04:35:25.781Z,50.38
2022-08-26T04:37:55.531Z,50.14
2022-08-26T04:40:26.669Z,50.30
2022-08-26T04:42:55.711Z,49.96
2022-08-26T04:45:25.315Z,50.13
2022-08-26T04:47:58.293Z,50.45
2022-08-26T04:50:27.099Z,50.50
2022-08-26T04:52:56.500Z,50.24
2022-08-26T04:55:38.613Z,50.20
2022-08-26T04:58:10.395Z,50.31
2022-08-26T05:00:39.991Z,50.39
2022-08-26T05:03:10.762Z,50.00
2022-08-26T05:05:41.322Z,50.10
2022-08-26T05:08:11.205Z,49.86
2022-08-26T05:10:43.934Z,50.01
2022-08-26T05:13:15.568Z,49.48
2022-08-26T05:15:45.362Z,49.66
2022-08-26T05:18:21.260Z,49.80
2022-08-26T05:20:54.446Z,49.44
2022-08-26T05:23:24.835Z,49.00
2022-08-26T05:25:59.157Z,49.21
2022-08-26T05:28:30.814Z,48.75
2022-08-26T05:30:59.321Z,48.66
2022-08-26T05:33:29.859Z,48.58
2022-08-26T05:35:58.297Z,49.08
2022-08-26T05:38:26.874Z,48.90
2022-08-26T05:40:59.063Z,48.93
2022-08-26T05:43:27.982Z,48.34
2022-08-26T05:45:57.364Z,48.58
2022-08-26T05:48:25.815Z,48.33
2022-08-26T05:50:55.670Z,48.67
2022-08-26T05:53:25.950Z,47.88
2022-08-26T05:55:56.326Z,47.98
2022-08-26T05:58:28.214Z,47.75
2022-08-26T06:01:02.922Z,47.77
2022-08-26T06:03:33.417Z,47.56
2022-08-26T06:06:06.972Z,47.57
2022-08-26T06:08:35.900Z,47.72
2022-08-26T06:11:07.794Z,47.33
2022-08-26T06:13:40.132Z,47.56
2022-08-26T06:16:11.741Z,47.28
2022-08-26T06:18:43.105Z,47.24
2022-08-26T06:21:19.654Z,47.20
2022-08-26T06:24:08.004Z,46.88
2022-08-26T06:26:38.317Z,46.93
2022-08-26T06:29:08.526Z,46.78
2022-08-26T06:31:38.179Z,46.86
2022-08-26T06:34:10.869Z,46.44
2022-08-26T06:36:43.982Z,46.63
2022-08-26T06:39:15.496Z,46.43
2022-08-26T06:41:45.081Z,46.16
2022-08-26T06:44:16.437Z,45.89
2022-08-26T06:46:45.737Z,45.92
2022-08-26T06:49:14.324Z,45.87
2022-08-26T06:51:47.157Z,45.75
2022-08-26T06:54:17.403Z,45.37
2022-08-26T06:56:45.973Z,45.43
2022-08-26T06:59:16.516Z,45.36
2022-08-26T07:01:46.451Z,45.23
2022-08-26T07:04:21.765Z,45.27
2022-08-26T07:06:53.898Z,45.09
2022-08-26T07:09:25.522Z,44.64
2022-08-26T07:11:56.211Z,44.57
2022-08-26T07:14:26.216Z,44.18
2022-08-26T07:16:55.928Z,44.29
2022-08-26T07:19:29.093Z,44.26
2022-08-26T07:22:03.364Z,43.83
2022-08-26T07:24:33.195Z,43.72
2022-08-26T07:27:06.796Z,43.10
2022-08-26T07:29:39.515Z,42.63
2022-08-26T07:32:09.790Z,43.01
2022-08-26T07:34:39.259Z,42.80
2022-08-26T07:37:11.729Z,42.05
2022-08-26T07:39:41.738Z,42.44
2022-08-26T07:42:14.849Z,42.27
2022-08-26T07:44:44.557Z,41.99
2022-08-26T07:47:25.052Z,41.82
2022-08-26T07:49:57.554Z,41.72
2022-08-26T07:52:30.926Z,41.10
2022-08-26T07:55:02.319Z,40.91
2022-08-26T07:57:31.512Z,41.07
2022-08-26T08:00:00.691Z,40.72
2022-08-26T08:02:30.349Z,40.27
2022-08-26T08:04:59.885Z,40.04
2022-08-26T08:07:44.926Z,40.09
2022-08-26T08:10:17.363Z,39.94
2022-08-26T08:12:46.275Z,39.83
2022-08-26T08:15:15.543Z,39.84
2022-08-26T08:17:44.621Z,39.09
2022-08-26T08:20:15.407Z,39.15
2022-08-26T08:22:45.492Z,39.40
2022-08-26T08:25:16.332Z,38.66
2022-08-26T08:27:46.446Z,38.66
2022-08-26T08:30:22.855Z,38.33
2022-08-26T08:32:51.809Z,38.61
2022-08-26T08:35:22.579Z,38.21
2022-08-26T08:37:54.830Z,37.74
2022-08-26T08:40:26.356Z,37.53
2022-08-26T08:43:02.512Z,37.72
2022-08-26T08:45:38.751Z,37.11
2022-08-26T08:48:21.445Z,37.22
2022-08-26T08:51:03.521Z,37.09
2022-08-26T08:53:37.630Z,36.70
2022-08-26T08:56:13.551Z,36.63
2022-08-26T08:58:56.804Z,37.04
2022-08-26T09:01:46.589Z,36.72
2022-08-26T09:04:56.176Z,36.48
2022-08-26T09:07:36.324Z,36.63
2022-08-26T09:10:30.887Z,36.01
2022-08-26T09:13:00.822Z,36.15
2022-08-26T09:15:43.325Z,36.33
2022-08-26T09:18:25.976Z,36.33
2022-08-26T09:20:59.318Z,35.85
2022-08-26T09:23:28.210Z,35.88
2022-08-26T09:26:01.666Z,35.57
2022-08-26T09:28:32.611Z,35.45
2022-08-26T09:31:14.170Z,35.62
2022-08-26T09:33:43.907Z,35.02
2022-08-26T09:36:22.947Z,34.98
2022-08-26T09:38:55.141Z,34.60
2022-08-26T09:41:32.189Z,34.41
2022-08-26T09:44:17.462Z,34.79
2022-08-26T09:46:58.200Z,34.63
2022-08-26T09:49:35.794Z,34.03
2022-08-26T09:52:20.604Z,34.32
2022-08-26T09:55:07.897Z,34.09
2022-08-26T09:57:48.559Z,33.89
2022-08-26T10:00:31.570Z,33.88
2022-08-26T10:03:03.017Z,33.58
2022-08-26T10:05:39.972Z,33.65
2022-08-26T10:08:35.179Z,33.60
2022-08-26T10:11:08.477Z,33.30
2022-08-26T10:13:44.411Z,32.93
2022-08-26T10:16:20.112Z,33.00
2022-08-26T10:18:59.465Z,32.91
2022-08-26T10:21:34.137Z,32.77
2022-08-26T10:24:05.539Z,32.41
2022-08-26T10:26:44.620Z,32.15
2022-08-26T10:29:22.389Z,31.68
2022-08-26T10:31:56.279Z,31.07
2022-08-26T10:34:31.099Z,30.62
2022-08-26T10:37:16.285Z,29.78
2022-08-26T10:39:57.090Z,29.92
2022-08-26T10:42:33.554Z,29.88
2022-08-26T10:45:11.984Z,29.17
2022-08-26T10:47:51.417Z,29.48
2022-08-26T10:50:21.629Z,28.63
2022-08-26T10:53:00.872Z,28.97
2022-08-26T10:55:38.628Z,28.42
2022-08-26T10:58:31.109Z,27.60
2022-08-26T11:01:32.449Z,27.99
2022-08-26T11:04:11.668Z,27.74
2022-08-26T11:06:40.346Z,27.39
2022-08-26T11:09:10.950Z,27.48
2022-08-26T11:11:51.296Z,26.96
2022-08-26T11:14:40.706Z,25.66
2022-08-26T11:17:58.243Z,26.49
2022-08-26T11:20:39.100Z,25.68
2022-08-26T11:23:50.405Z,26.09
2022-08-26T11:26:37.882Z,25.37
2022-08-26T11:30:02.685Z,25.45
2022-08-26T11:32:51.024Z,24.87
2022-08-26T11:35:52.288Z,24.63
2022-08-26T11:38:29.633Z,24.05
2022-08-26T11:41:11.289Z,23.68
2022-08-26T11:43:42.657Z,22.82
2022-08-26T11:46:24.053Z,22.84
2022-08-26T11:49:02.186Z,22.37
2022-08-26T11:51:31.946Z,21.82
2022-08-26T11:54:13.405Z,21.13
2022-08-26T11:56:44.179Z,20.51
2022-08-26T11:59:19.015Z,19.64
2022-08-26T12:01:54.831Z,19.27
2022-08-26T12:04:31.919Z,19.19
2022-08-26T12:07:03.109Z,19.04
2022-08-26T12:09:35.488Z,18.90
2022-08-26T12:12:18.599Z,18.88
2022-08-26T12:14:47.659Z,18.68
2022-08-26T12:17:22.511Z,18.52
2022-08-26T12:19:51.466Z,17.61
2022-08-26T12:22:23.937Z,17.77
2022-08-26T12:24:55.932Z,17.19
2022-08-26T12:27:28.347Z,17.32
2022-08-26T12:30:12.349Z,17.15
2022-08-26T12:32:57.311Z,16.36
2022-08-26T12:35:30.095Z,16.24
2022-08-26T12:38:01.576Z,15.73
2022-08-26T12:40:39.417Z,15.60
2022-08-26T12:43:10.337Z,15.03
2022-08-26T12:45:41.621Z,14.84
2022-08-26T12:48:24.579Z,14.74
2022-08-26T12:50:54.133Z,14.29
2022-08-26T12:53:25.353Z,14.10
2022-08-26T12:55:56.643Z,13.83
2022-08-26T12:58:30.356Z,13.39
2022-08-26T13:01:20.335Z,13.12
2022-08-26T13:03:50.395Z,12.98
2022-08-26T13:06:30.077Z,12.63
2022-08-26T13:09:01.280Z,11.81
2022-08-26T13:11:33.052Z,12.11
2022-08-26T13:14:07.071Z,11.82
2022-08-26T13:16:36.899Z,11.68
2022-08-26T13:19:10.752Z,11.67
2022-08-26T13:21:47.828Z,11.25
2022-08-26T13:24:21.417Z,11.41
2022-08-26T13:26:51.076Z,11.83
2022-08-26T13:29:20.622Z,11.95
2022-08-26T13:31:49.588Z,12.54
2022-08-26T13:34:22.258Z,12.94
2022-08-26T13:36:53.320Z,13.20
2022-08-26T13:39:22.865Z,13.40
2022-08-26T13:41:51.675Z,13.16
2022-08-26T13:44:21.647Z,12.91
2022-08-26T13:46:50.198Z,13.09
2022-08-26T13:49:20.007Z,12.90
2022-08-26T13:51:48.439Z,13.11
2022-08-26T13:54:16.927Z,12.10
2022-08-26T13:56:45.421Z,12.11
2022-08-26T13:59:14.002Z,11.64
2022-08-26T14:01:42.508Z,11.50
2022-08-26T14:04:10.976Z,11.03
2022-08-26T14:06:40.869Z,10.58
2022-08-26T14:09:11.452Z,10.56
2022-08-26T14:11:54.025Z,10.09
2022-08-26T14:14:22.743Z,10.33
2022-08-26T14:16:59.817Z,9.68
2022-08-26T14:19:30.779Z,10.04
2022-08-26T14:22:01.863Z,10.69
2022-08-26T14:24:30.877Z,10.96
2022-08-26T14:26:59.573Z,11.04
2022-08-26T14:29:28.374Z,11.47
2022-08-26T14:31:58.782Z,11.82
2022-08-26T14:34:27.345Z,12.37
2022-08-26T14:36:55.845Z,12.39
2022-08-26T14:39:25.739Z,12.62
2022-08-26T14:41:57.759Z,12.91
2022-08-26T14:44:31.273Z,13.18
2022-08-26T14:47:02.889Z,13.34
2022-08-26T14:49:32.361Z,13.76
2022-08-26T14:52:00.948Z,14.05
2022-08-26T14:54:30.733Z,14.23
2022-08-26T14:57:03.720Z,14.58
2022-08-26T14:59:34.924Z,15.27
2022-08-26T15:02:04.263Z,15.38
2022-08-26T15:04:32.913Z,15.70
2022-08-26T15:07:02.416Z,15.86
2022-08-26T15:09:36.453Z,16.13
2022-08-26T15:12:05.868Z,16.47
2022-08-26T15:14:34.568Z,16.92
2022-08-26T15:17:03.444Z,16.94
2022-08-26T15:19:31.898Z,17.07
2022-08-26T15:22:00.372Z,17.25
2022-08-26T15:24:30.070Z,17.46
2022-08-26T15:26:59.895Z,17.95
2022-08-26T15:29:28.392Z,18.06
2022-08-26T15:31:57.449Z,18.38
2022-08-26T15:34:26.999Z,18.12
2022-08-26T15:36:55.898Z,18.74
2022-08-26T15:39:24.855Z,18.38
2022-08-26T15:41:53.341Z,18.99
2022-08-26T15:44:23.902Z,18.83
2022-08-26T15:46:58.270Z,18.97
2022-08-26T15:49:27.746Z,18.91
2022-08-26T15:51:56.238Z,18.73
2022-08-26T15:54:25.852Z,19.38
2022-08-26T15:56:54.440Z,19.32
2022-08-26T15:59:24.438Z,18.75
2022-08-26T16:01:53.243Z,19.65
2022-08-26T16:04:22.157Z,19.64
2022-08-26T16:06:52.303Z,19.53
2022-08-26T16:09:24.213Z,20.16
2022-08-26T16:11:53.206Z,20.45
2022-08-26T16:14:23.778Z,20.24
2022-08-26T16:16:52.732Z,20.41
2022-08-26T16:19:22.205Z,20.16
2022-08-26T16:21:52.016Z,20.58
2022-08-26T16:24:25.967Z,20.73
2022-08-26T16:26:57.046Z,20.21
2022-08-26T16:29:27.211Z,20.82
2022-08-26T16:31:56.232Z,20.65
2022-08-26T16:34:24.928Z,20.88
2022-08-26T16:36:53.974Z,20.69
2022-08-26T16:39:22.450Z,21.16
2022-08-26T16:41:50.972Z,20.94
2022-08-26T16:44:19.400Z,21.45
2022-08-26T16:46:49.682Z,21.66
2022-08-26T16:49:18.216Z,21.60
2022-08-26T16:51:46.960Z,21.87
2022-08-26T16:54:15.434Z,22.04
2022-08-26T16:56:43.834Z,22.35
2022-08-26T16:59:12.585Z,21.96
2022-08-26T17:01:41.035Z,21.91
2022-08-26T17:04:10.919Z,22.25
2022-08-26T17:06:39.465Z,22.14
2022-08-26T17:09:08.132Z,21.87
2022-08-26T17:11:36.956Z,21.87
2022-08-26T17:14:06.175Z,21.97
2022-08-26T17:16:34.729Z,21.98
2022-08-26T17:19:04.538Z,22.11
2022-08-26T17:21:36.260Z,22.20
2022-08-26T17:24:05.688Z,22.35
2022-08-26T17:26:34.462Z,22.29
2022-08-26T17:29:02.858Z,22.44
2022-08-26T17:31:32.066Z,22.45
2022-08-26T17:34:00.926Z,22.48
2022-08-26T17:36:29.467Z,22.37
2022-08-26T17:39:00.259Z,22.75
2022-08-26T17:41:29.740Z,22.55
2022-08-26T17:43:58.434Z,22.87
2022-08-26T17:46:27.468Z,22.92
2022-08-26T17:48:56.528Z,22.76
2022-08-26T17:51:25.489Z,23.15
2022-08-26T17:53:54.376Z,23.25
2022-08-26T17:56:27.917Z,23.47
2022-08-26T17:59:03.517Z,24.54
2022-08-26T18:01:32.953Z,24.80
2022-08-26T18:04:01.634Z,25.10
2022-08-26T18:06:30.834Z,25.59
2022-08-26T18:09:00.090Z,25.96
2022-08-26T18:11:31.239Z,26.17
2022-08-26T18:13:59.942Z,26.49
2022-08-26T18:16:31.934Z,26.89
2022-08-26T18:19:00.804Z,27.24
2022-08-26T18:21:29.679Z,27.21
2022-08-26T18:23:58.357Z,27.27
2022-08-26T18:26:31.558Z,27.71
2022-08-26T18:29:00.812Z,27.28
2022-08-26T18:31:30.218Z,27.74
2022-08-26T18:34:00.317Z,28.11
2022-08-26T18:36:32.232Z,28.38
2022-08-26T18:39:00.986Z,28.90
2022-08-26T18:41:33.203Z,29.20
2022-08-26T18:44:01.801Z,29.20
2022-08-26T18:46:30.333Z,29.14
2022-08-26T18:48:59.097Z,29.17
2022-08-26T18:51:31.972Z,29.48
2022-08-26T18:54:02.633Z,29.42
2022-08-26T18:56:33.626Z,29.62
2022-08-26T18:59:03.128Z,30.33
2022-08-26T19:01:33.790Z,29.94
2022-08-26T19:04:05.930Z,30.50
2022-08-26T19:06:38.456Z,30.30
2022-08-26T19:09:10.671Z,30.44
2022-08-26T19:11:42.968Z,30.71
2022-08-26T19:14:15.324Z,30.83
2022-08-26T19:16:47.293Z,31.44
2022-08-26T19:19:16.556Z,31.01
2022-08-26T19:21:45.343Z,31.65
2022-08-26T19:24:17.657Z,32.20
2022-08-26T19:26:55.206Z,32.06
2022-08-26T19:29:30.364Z,32.48
2022-08-26T19:31:59.001Z,32.61
2022-08-26T19:34:28.110Z,32.91
2022-08-26T19:36:58.410Z,33.17
2022-08-26T19:39:28.193Z,33.25
2022-08-26T19:41:59.124Z,33.67
2022-08-26T19:44:45.347Z,33.80
2022-08-26T19:47:15.921Z,34.19
2022-08-26T19:49:45.185Z,34.65
2022-08-26T19:52:14.583Z,34.92
2022-08-26T19:54:44.846Z,35.00
2022-08-26T19:57:14.649Z,35.31
2022-08-26T19:59:43.893Z,35.96
2022-08-26T20:02:13.264Z,35.97
2022-08-26T20:04:42.252Z,36.03
2022-08-26T20:07:13.042Z,35.71
2022-08-26T20:09:45.408Z,36.15
2022-08-26T20:12:16.282Z,35.87
2022-08-26T20:14:45.538Z,36.46
2022-08-26T20:17:14.836Z,36.10
2022-08-26T20:20:00.990Z,36.20
2022-08-26T20:22:29.960Z,36.00
2022-08-26T20:24:58.655Z,36.08
2022-08-26T20:27:37.953Z,36.20
2022-08-26T20:30:10.074Z,36.21
2022-08-26T20:32:39.692Z,36.21
2022-08-26T20:35:11.141Z,36.63
2022-08-26T20:37:40.493Z,36.00
2022-08-26T20:40:12.174Z,36.36
2022-08-26T20:42:42.784Z,36.26
2022-08-26T20:45:12.372Z,36.42
2022-08-26T20:47:40.996Z,36.32
2022-08-26T20:50:10.524Z,36.23
2022-08-26T20:52:38.966Z,36.21
2022-08-26T20:55:08.639Z,36.61
2022-08-26T20:57:37.408Z,36.19
2022-08-26T21:00:09.192Z,36.19
2022-08-26T21:02:37.593Z,36.39
2022-08-26T21:05:07.501Z,36.12
2022-08-26T21:07:36.119Z,36.23
2022-08-26T21:10:05.201Z,36.15
2022-08-26T21:12:33.642Z,36.52
2022-08-26T21:15:02.177Z,36.47
2022-08-26T21:17:32.430Z,36.36
2022-08-26T21:20:01.019Z,36.36
2022-08-26T21:22:30.783Z,36.68
2022-08-26T21:24:59.233Z,36.74
2022-08-26T21:27:27.891Z,36.95
2022-08-26T21:29:56.690Z,37.12
2022-08-26T21:32:25.159Z,37.01
2022-08-26T21:34:57.261Z,37.02
2022-08-26T21:37:27.258Z,36.93
2022-08-26T21:39:57.172Z,37.08
2022-08-26T21:42:27.428Z,37.11
2022-08-26T21:44:55.982Z,37.30
2022-08-26T21:47:25.555Z,37.11
2022-08-26T21:49:54.467Z,36.99
2022-08-26T21:52:24.293Z,37.25
2022-08-26T21:54:56.993Z,37.24
2022-08-26T21:57:25.504Z,37.45
2022-08-26T21:59:54.062Z,37.51
2022-08-26T22:02:24.201Z,37.58
2022-08-26T22:04:52.807Z,37.89
2022-08-26T22:07:21.486Z,37.72
2022-08-26T22:09:51.295Z,37.74
2022-08-26T22:12:19.678Z,37.78
2022-08-26T22:14:48.572Z,37.96
2022-08-26T22:17:17.081Z,38.02
2022-08-26T22:19:46.738Z,38.06
2022-08-26T22:22:16.364Z,38.12
2022-08-26T22:24:44.798Z,38.11
2022-08-26T22:27:15.426Z,38.31
2022-08-26T22:29:43.914Z,38.72
2022-08-26T22:32:12.389Z,38.53
2022-08-26T22:34:41.988Z,38.50
2022-08-26T22:37:10.495Z,38.09
2022-08-26T22:39:39.757Z,38.43
2022-08-26T22:42:08.338Z,38.09
2022-08-26T22:44:38.167Z,38.20
2022-08-26T22:47:07.412Z,37.94
2022-08-26T22:49:35.847Z,38.32
2022-08-26T22:52:04.891Z,38.33
2022-08-26T22:54:33.317Z,38.86
2022-08-26T22:57:01.811Z,38.59
2022-08-26T22:59:30.281Z,39.04
2022-08-26T23:02:00.638Z,39.22
2022-08-26T23:04:29.045Z,39.63
2022-08-26T23:06:57.476Z,39.11
2022-08-26T23:09:25.897Z,39.28
2022-08-26T23:11:56.036Z,39.68
2022-08-26T23:14:25.815Z,39.65
2022-08-26T23:16:54.749Z,39.59
2022-08-26T23:19:24.954Z,39.36
2022-08-26T23:21:53.670Z,39.26
2022-08-26T23:24:22.142Z,39.26
2022-08-26T23:26:50.656Z,39.49
2022-08-26T23:29:19.282Z,39.59
2022-08-26T23:31:48.014Z,39.91
2022-08-26T23:34:34.381Z,40.09
2022-08-26T23:37:06.746Z,39.89
2022-08-26T23:39:36.500Z,40.12
2022-08-26T23:42:06.598Z,40.14
2022-08-26T23:44:35.539Z,40.20
2022-08-26T23:47:04.966Z,40.03
2022-08-26T23:49:34.385Z,39.95
2022-08-26T23:52:28.196Z,40.23
2022-08-26T23:54:57.000Z,40.04
2022-08-26T23:57:27.815Z,40.13
2022-08-26T23:59:56.946Z,39.86
